sensor_id;sensor_type;location;lat;lon;timestamp;P1;durP1;ratioP1;P2;durP2;ratioP2
76357;SDS011;65185;21.060;105.826;2023-05-18T00:01:48;77.43;;;48.13;;
76357;SDS011;65185;21.060;105.826;2023-05-18T00:04:18;82.80;;;49.85;;
76357;SDS011;65185;21.060;105.826;2023-05-18T00:06:50;73.07;;;49.47;;
76357;SDS011;65185;21.060;105.826;2023-05-18T00:09:28;94.40;;;58.30;;
76357;SDS011;65185;21.060;105.826;2023-05-18T00:11:56;83.80;;;53.17;;
76357;SDS011;65185;21.060;105.826;2023-05-18T00:14:23;80.97;;;51.13;;
76357;SDS011;65185;21.060;105.826;2023-05-18T00:16:50;83.00;;;54.10;;
76357;SDS011;65185;21.060;105.826;2023-05-18T00:19:20;82.97;;;52.00;;
76357;SDS011;65185;21.060;105.826;2023-05-18T00:21:54;79.88;;;50.97;;
76357;SDS011;65185;21.060;105.826;2023-05-18T00:24:21;91.25;;;57.20;;
76357;SDS011;65185;21.060;105.826;2023-05-18T00:26:48;91.43;;;56.08;;
76357;SDS011;65185;21.060;105.826;2023-05-18T00:29:14;78.53;;;49.55;;
76357;SDS011;65185;21.060;105.826;2023-05-18T00:31:41;74.10;;;48.53;;
76357;SDS011;65185;21.060;105.826;2023-05-18T00:34:10;84.97;;;52.22;;
76357;SDS011;65185;21.060;105.826;2023-05-18T00:36:38;87.05;;;52.80;;
76357;SDS011;65185;21.060;105.826;2023-05-18T00:39:05;81.07;;;53.20;;
76357;SDS011;65185;21.060;105.826;2023-05-18T00:41:33;85.65;;;52.65;;
76357;SDS011;65185;21.060;105.826;2023-05-18T00:44:00;81.78;;;50.22;;
76357;SDS011;65185;21.060;105.826;2023-05-18T00:46:28;73.22;;;43.83;;
76357;SDS011;65185;21.060;105.826;2023-05-18T00:48:55;76.78;;;48.80;;
76357;SDS011;65185;21.060;105.826;2023-05-18T00:51:23;81.03;;;50.22;;
76357;SDS011;65185;21.060;105.826;2023-05-18T00:53:51;83.93;;;50.65;;
76357;SDS011;65185;21.060;105.826;2023-05-18T00:56:19;84.57;;;51.40;;
76357;SDS011;65185;21.060;105.826;2023-05-18T00:58:48;72.65;;;45.33;;
76357;SDS011;65185;21.060;105.826;2023-05-18T01:01:17;77.32;;;48.03;;
76357;SDS011;65185;21.060;105.826;2023-05-18T01:03:44;77.50;;;48.10;;
76357;SDS011;65185;21.060;105.826;2023-05-18T01:06:11;77.53;;;46.00;;
76357;SDS011;65185;21.060;105.826;2023-05-18T01:08:38;78.40;;;45.60;;
76357;SDS011;65185;21.060;105.826;2023-05-18T01:13:55;57.58;;;38.22;;
76357;SDS011;65185;21.060;105.826;2023-05-18T01:22:06;63.42;;;39.67;;
76357;SDS011;65185;21.060;105.826;2023-05-18T01:24:37;58.13;;;37.85;;
76357;SDS011;65185;21.060;105.826;2023-05-18T01:27:07;62.03;;;38.72;;
76357;SDS011;65185;21.060;105.826;2023-05-18T01:29:36;61.55;;;37.83;;
76357;SDS011;65185;21.060;105.826;2023-05-18T01:32:05;56.55;;;35.45;;
76357;SDS011;65185;21.060;105.826;2023-05-18T01:36:58;68.20;;;41.50;;
76357;SDS011;65185;21.060;105.826;2023-05-18T01:39:25;76.60;;;46.28;;
76357;SDS011;65185;21.060;105.826;2023-05-18T01:41:55;81.00;;;46.70;;
76357;SDS011;65185;21.060;105.826;2023-05-18T01:44:30;82.88;;;48.50;;
76357;SDS011;65185;21.060;105.826;2023-05-18T01:52:31;71.75;;;46.03;;
76357;SDS011;65185;21.060;105.826;2023-05-18T01:55:05;76.05;;;47.90;;
76357;SDS011;65185;21.060;105.826;2023-05-18T01:57:33;74.43;;;45.85;;
76357;SDS011;65185;21.060;105.826;2023-05-18T02:00:02;84.07;;;48.80;;
76357;SDS011;65185;21.060;105.826;2023-05-18T02:02:32;87.22;;;49.08;;
76357;SDS011;65185;21.060;105.826;2023-05-18T02:04:58;84.70;;;47.35;;
76357;SDS011;65185;21.060;105.826;2023-05-18T02:07:25;74.82;;;43.30;;
76357;SDS011;65185;21.060;105.826;2023-05-18T02:09:52;63.92;;;39.17;;
76357;SDS011;65185;21.060;105.826;2023-05-18T02:12:18;74.18;;;44.92;;
76357;SDS011;65185;21.060;105.826;2023-05-18T02:14:44;70.30;;;42.67;;
76357;SDS011;65185;21.060;105.826;2023-05-18T02:17:11;63.83;;;40.38;;
76357;SDS011;65185;21.060;105.826;2023-05-18T02:19:37;66.90;;;38.75;;
76357;SDS011;65185;21.060;105.826;2023-05-18T02:22:04;58.55;;;36.58;;
76357;SDS011;65185;21.060;105.826;2023-05-18T02:24:32;65.40;;;39.50;;
76357;SDS011;65185;21.060;105.826;2023-05-18T02:26:59;61.42;;;37.47;;
76357;SDS011;65185;21.060;105.826;2023-05-18T02:29:25;56.38;;;35.60;;
76357;SDS011;65185;21.060;105.826;2023-05-18T02:31:52;56.75;;;34.78;;
76357;SDS011;65185;21.060;105.826;2023-05-18T02:34:18;49.20;;;32.60;;
76357;SDS011;65185;21.060;105.826;2023-05-18T02:36:47;57.03;;;35.95;;
76357;SDS011;65185;21.060;105.826;2023-05-18T02:39:13;59.38;;;36.67;;
76357;SDS011;65185;21.060;105.826;2023-05-18T02:41:40;60.90;;;35.20;;
76357;SDS011;65185;21.060;105.826;2023-05-18T02:44:06;56.03;;;33.20;;
76357;SDS011;65185;21.060;105.826;2023-05-18T02:46:33;47.90;;;30.20;;
76357;SDS011;65185;21.060;105.826;2023-05-18T02:48:59;46.38;;;31.58;;
76357;SDS011;65185;21.060;105.826;2023-05-18T02:51:26;46.33;;;31.98;;
76357;SDS011;65185;21.060;105.826;2023-05-18T02:53:54;52.60;;;33.08;;
76357;SDS011;65185;21.060;105.826;2023-05-18T02:56:21;58.58;;;34.58;;
76357;SDS011;65185;21.060;105.826;2023-05-18T02:58:48;70.18;;;40.03;;
76357;SDS011;65185;21.060;105.826;2023-05-18T03:01:21;70.88;;;39.10;;
76357;SDS011;65185;21.060;105.826;2023-05-18T03:03:51;54.38;;;35.13;;
76357;SDS011;65185;21.060;105.826;2023-05-18T03:06:19;64.93;;;37.50;;
76357;SDS011;65185;21.060;105.826;2023-05-18T03:08:53;65.88;;;36.72;;
76357;SDS011;65185;21.060;105.826;2023-05-18T03:11:23;57.03;;;35.00;;
76357;SDS011;65185;21.060;105.826;2023-05-18T03:13:50;61.08;;;40.38;;
76357;SDS011;65185;21.060;105.826;2023-05-18T03:16:17;64.82;;;37.70;;
76357;SDS011;65185;21.060;105.826;2023-05-18T03:18:43;56.33;;;35.05;;
76357;SDS011;65185;21.060;105.826;2023-05-18T03:21:10;51.47;;;33.10;;
76357;SDS011;65185;21.060;105.826;2023-05-18T03:23:38;52.33;;;33.90;;
76357;SDS011;65185;21.060;105.826;2023-05-18T03:26:04;56.72;;;34.50;;
76357;SDS011;65185;21.060;105.826;2023-05-18T03:28:36;51.78;;;32.78;;
76357;SDS011;65185;21.060;105.826;2023-05-18T03:31:03;47.22;;;30.75;;
76357;SDS011;65185;21.060;105.826;2023-05-18T03:33:29;49.53;;;32.47;;
76357;SDS011;65185;21.060;105.826;2023-05-18T03:35:57;43.42;;;29.80;;
76357;SDS011;65185;21.060;105.826;2023-05-18T03:38:27;51.72;;;32.17;;
76357;SDS011;65185;21.060;105.826;2023-05-18T03:40:54;48.97;;;31.63;;
76357;SDS011;65185;21.060;105.826;2023-05-18T03:43:21;44.78;;;30.92;;
76357;SDS011;65185;21.060;105.826;2023-05-18T03:45:50;43.78;;;31.35;;
76357;SDS011;65185;21.060;105.826;2023-05-18T03:48:17;43.45;;;30.20;;
76357;SDS011;65185;21.060;105.826;2023-05-18T03:50:43;48.97;;;30.20;;
76357;SDS011;65185;21.060;105.826;2023-05-18T03:53:10;44.90;;;28.83;;
76357;SDS011;65185;21.060;105.826;2023-05-18T03:55:37;49.30;;;32.05;;
76357;SDS011;65185;21.060;105.826;2023-05-18T03:58:04;44.75;;;30.60;;
76357;SDS011;65185;21.060;105.826;2023-05-18T04:00:30;43.13;;;29.33;;
76357;SDS011;65185;21.060;105.826;2023-05-18T04:02:56;47.28;;;30.60;;
76357;SDS011;65185;21.060;105.826;2023-05-18T04:05:23;51.08;;;31.55;;
76357;SDS011;65185;21.060;105.826;2023-05-18T04:07:50;57.22;;;32.95;;
76357;SDS011;65185;21.060;105.826;2023-05-18T04:10:16;45.45;;;30.45;;
76357;SDS011;65185;21.060;105.826;2023-05-18T04:12:43;46.03;;;28.77;;
76357;SDS011;65185;21.060;105.826;2023-05-18T04:15:10;44.75;;;30.25;;
76357;SDS011;65185;21.060;105.826;2023-05-18T04:17:38;44.45;;;30.45;;
76357;SDS011;65185;21.060;105.826;2023-05-18T04:20:12;44.17;;;30.00;;
76357;SDS011;65185;21.060;105.826;2023-05-18T04:22:40;45.17;;;30.38;;
76357;SDS011;65185;21.060;105.826;2023-05-18T04:25:13;47.88;;;30.30;;
76357;SDS011;65185;21.060;105.826;2023-05-18T04:27:40;45.90;;;30.15;;
76357;SDS011;65185;21.060;105.826;2023-05-18T04:30:09;42.20;;;28.45;;
76357;SDS011;65185;21.060;105.826;2023-05-18T04:32:37;44.10;;;29.65;;
76357;SDS011;65185;21.060;105.826;2023-05-18T04:35:07;42.65;;;27.75;;
76357;SDS011;65185;21.060;105.826;2023-05-18T04:37:34;43.22;;;28.48;;
76357;SDS011;65185;21.060;105.826;2023-05-18T04:40:05;39.97;;;26.63;;
76357;SDS011;65185;21.060;105.826;2023-05-18T04:42:38;38.38;;;25.45;;
76357;SDS011;65185;21.060;105.826;2023-05-18T04:45:12;39.03;;;24.65;;
76357;SDS011;65185;21.060;105.826;2023-05-18T04:47:44;36.25;;;24.48;;
76357;SDS011;65185;21.060;105.826;2023-05-18T04:50:15;34.40;;;23.70;;
76357;SDS011;65185;21.060;105.826;2023-05-18T04:52:43;33.53;;;23.58;;
76357;SDS011;65185;21.060;105.826;2023-05-18T04:55:14;38.40;;;23.45;;
76357;SDS011;65185;21.060;105.826;2023-05-18T04:57:50;33.25;;;23.17;;
76357;SDS011;65185;21.060;105.826;2023-05-18T05:00:21;32.70;;;22.63;;
76357;SDS011;65185;21.060;105.826;2023-05-18T05:02:51;39.63;;;27.23;;
76357;SDS011;65185;21.060;105.826;2023-05-18T05:05:18;44.17;;;28.98;;
76357;SDS011;65185;21.060;105.826;2023-05-18T05:07:45;39.80;;;28.08;;
76357;SDS011;65185;21.060;105.826;2023-05-18T05:10:13;39.00;;;26.85;;
76357;SDS011;65185;21.060;105.826;2023-05-18T05:12:40;46.08;;;29.75;;
76357;SDS011;65185;21.060;105.826;2023-05-18T05:15:07;44.47;;;27.92;;
76357;SDS011;65185;21.060;105.826;2023-05-18T05:17:34;46.38;;;28.42;;
76357;SDS011;65185;21.060;105.826;2023-05-18T05:20:00;36.97;;;27.10;;
76357;SDS011;65185;21.060;105.826;2023-05-18T05:22:27;35.22;;;25.40;;
76357;SDS011;65185;21.060;105.826;2023-05-18T05:24:53;39.22;;;26.38;;
76357;SDS011;65185;21.060;105.826;2023-05-18T05:27:19;38.03;;;24.80;;
76357;SDS011;65185;21.060;105.826;2023-05-18T05:29:47;40.08;;;24.67;;
76357;SDS011;65185;21.060;105.826;2023-05-18T05:32:15;37.65;;;24.83;;
76357;SDS011;65185;21.060;105.826;2023-05-18T05:34:41;35.72;;;23.70;;
76357;SDS011;65185;21.060;105.826;2023-05-18T05:37:11;31.60;;;22.80;;
76357;SDS011;65185;21.060;105.826;2023-05-18T05:39:38;34.78;;;23.52;;
76357;SDS011;65185;21.060;105.826;2023-05-18T05:42:05;35.30;;;21.52;;
76357;SDS011;65185;21.060;105.826;2023-05-18T05:44:33;27.33;;;19.30;;
76357;SDS011;65185;21.060;105.826;2023-05-18T05:46:59;32.60;;;19.60;;
76357;SDS011;65185;21.060;105.826;2023-05-18T05:49:26;33.83;;;21.25;;
76357;SDS011;65185;21.060;105.826;2023-05-18T05:51:52;26.85;;;20.10;;
76357;SDS011;65185;21.060;105.826;2023-05-18T05:54:19;33.33;;;20.92;;
76357;SDS011;65185;21.060;105.826;2023-05-18T05:56:45;32.72;;;21.80;;
76357;SDS011;65185;21.060;105.826;2023-05-18T05:59:12;33.55;;;22.42;;
76357;SDS011;65185;21.060;105.826;2023-05-18T06:01:39;27.95;;;20.00;;
76357;SDS011;65185;21.060;105.826;2023-05-18T06:04:05;34.90;;;20.13;;
76357;SDS011;65185;21.060;105.826;2023-05-18T06:06:38;30.90;;;20.02;;
76357;SDS011;65185;21.060;105.826;2023-05-18T06:09:04;32.85;;;19.98;;
76357;SDS011;65185;21.060;105.826;2023-05-18T06:11:31;26.60;;;19.63;;
76357;SDS011;65185;21.060;105.826;2023-05-18T06:13:57;35.03;;;21.15;;
76357;SDS011;65185;21.060;105.826;2023-05-18T06:16:24;29.13;;;19.48;;
76357;SDS011;65185;21.060;105.826;2023-05-18T06:18:50;26.38;;;19.00;;
76357;SDS011;65185;21.060;105.826;2023-05-18T06:21:17;27.65;;;19.40;;
76357;SDS011;65185;21.060;105.826;2023-05-18T06:23:43;28.02;;;19.08;;
76357;SDS011;65185;21.060;105.826;2023-05-18T06:26:10;25.70;;;17.45;;
76357;SDS011;65185;21.060;105.826;2023-05-18T06:28:36;25.95;;;16.17;;
76357;SDS011;65185;21.060;105.826;2023-05-18T06:31:03;25.85;;;17.27;;
76357;SDS011;65185;21.060;105.826;2023-05-18T06:33:29;26.20;;;17.30;;
76357;SDS011;65185;21.060;105.826;2023-05-18T06:35:56;25.45;;;16.75;;
76357;SDS011;65185;21.060;105.826;2023-05-18T06:38:22;26.88;;;17.73;;
76357;SDS011;65185;21.060;105.826;2023-05-18T06:40:49;26.50;;;17.35;;
76357;SDS011;65185;21.060;105.826;2023-05-18T06:43:16;29.88;;;19.00;;
76357;SDS011;65185;21.060;105.826;2023-05-18T06:45:42;28.15;;;18.55;;
76357;SDS011;65185;21.060;105.826;2023-05-18T06:48:08;29.05;;;18.48;;
76357;SDS011;65185;21.060;105.826;2023-05-18T06:50:35;26.38;;;18.08;;
76357;SDS011;65185;21.060;105.826;2023-05-18T06:53:01;31.15;;;18.70;;
76357;SDS011;65185;21.060;105.826;2023-05-18T06:55:28;27.70;;;17.75;;
76357;SDS011;65185;21.060;105.826;2023-05-18T06:57:55;28.75;;;18.42;;
76357;SDS011;65185;21.060;105.826;2023-05-18T07:00:22;33.83;;;18.05;;
76357;SDS011;65185;21.060;105.826;2023-05-18T07:02:49;28.20;;;17.05;;
76357;SDS011;65185;21.060;105.826;2023-05-18T07:05:15;28.65;;;17.90;;
76357;SDS011;65185;21.060;105.826;2023-05-18T07:07:42;27.15;;;16.80;;
76357;SDS011;65185;21.060;105.826;2023-05-18T07:10:09;31.00;;;17.50;;
76357;SDS011;65185;21.060;105.826;2023-05-18T07:12:35;29.02;;;18.20;;
76357;SDS011;65185;21.060;105.826;2023-05-18T07:15:02;30.02;;;18.45;;
76357;SDS011;65185;21.060;105.826;2023-05-18T07:17:28;30.95;;;16.58;;
76357;SDS011;65185;21.060;105.826;2023-05-18T07:19:55;26.85;;;16.85;;
76357;SDS011;65185;21.060;105.826;2023-05-18T07:22:22;25.40;;;15.65;;
76357;SDS011;65185;21.060;105.826;2023-05-18T07:24:48;25.55;;;15.98;;
76357;SDS011;65185;21.060;105.826;2023-05-18T07:27:14;24.38;;;15.63;;
76357;SDS011;65185;21.060;105.826;2023-05-18T07:29:41;30.52;;;16.65;;
76357;SDS011;65185;21.060;105.826;2023-05-18T07:32:07;27.23;;;16.38;;
76357;SDS011;65185;21.060;105.826;2023-05-18T07:34:34;30.73;;;17.83;;
76357;SDS011;65185;21.060;105.826;2023-05-18T07:37:00;27.85;;;16.65;;
76357;SDS011;65185;21.060;105.826;2023-05-18T07:39:27;28.70;;;16.58;;
76357;SDS011;65185;21.060;105.826;2023-05-18T07:41:54;27.52;;;16.85;;
76357;SDS011;65185;21.060;105.826;2023-05-18T07:44:21;25.20;;;16.70;;
76357;SDS011;65185;21.060;105.826;2023-05-18T07:46:48;27.55;;;17.25;;
76357;SDS011;65185;21.060;105.826;2023-05-18T07:49:15;26.55;;;16.42;;
76357;SDS011;65185;21.060;105.826;2023-05-18T07:51:41;26.75;;;16.27;;
76357;SDS011;65185;21.060;105.826;2023-05-18T07:54:08;31.20;;;17.02;;
76357;SDS011;65185;21.060;105.826;2023-05-18T07:56:34;35.20;;;18.75;;
76357;SDS011;65185;21.060;105.826;2023-05-18T07:59:01;29.95;;;17.40;;
76357;SDS011;65185;21.060;105.826;2023-05-18T08:01:27;26.92;;;16.45;;
76357;SDS011;65185;21.060;105.826;2023-05-18T08:03:54;22.77;;;15.57;;
76357;SDS011;65185;21.060;105.826;2023-05-18T08:06:21;28.00;;;16.08;;
76357;SDS011;65185;21.060;105.826;2023-05-18T08:08:48;24.30;;;15.63;;
76357;SDS011;65185;21.060;105.826;2023-05-18T08:11:14;28.55;;;16.30;;
76357;SDS011;65185;21.060;105.826;2023-05-18T08:13:41;31.27;;;16.40;;
76357;SDS011;65185;21.060;105.826;2023-05-18T08:16:07;25.98;;;16.63;;
76357;SDS011;65185;21.060;105.826;2023-05-18T08:18:34;24.25;;;15.77;;
76357;SDS011;65185;21.060;105.826;2023-05-18T08:21:00;25.25;;;15.98;;
76357;SDS011;65185;21.060;105.826;2023-05-18T08:23:28;22.50;;;16.08;;
76357;SDS011;65185;21.060;105.826;2023-05-18T08:25:55;26.30;;;16.60;;
76357;SDS011;65185;21.060;105.826;2023-05-18T08:30:51;27.08;;;17.42;;
76357;SDS011;65185;21.060;105.826;2023-05-18T08:33:17;24.55;;;16.10;;
76357;SDS011;65185;21.060;105.826;2023-05-18T08:35:44;25.77;;;17.65;;
76357;SDS011;65185;21.060;105.826;2023-05-18T08:38:10;25.58;;;17.40;;
76357;SDS011;65185;21.060;105.826;2023-05-18T08:41:39;27.92;;;17.58;;
76357;SDS011;65185;21.060;105.826;2023-05-18T08:43:47;32.22;;;17.98;;
76357;SDS011;65185;21.060;105.826;2023-05-18T08:46:24;28.35;;;17.67;;
76357;SDS011;65185;21.060;105.826;2023-05-18T08:48:54;23.95;;;15.98;;
76357;SDS011;65185;21.060;105.826;2023-05-18T08:51:23;29.52;;;18.42;;
76357;SDS011;65185;21.060;105.826;2023-05-18T08:53:56;27.75;;;19.10;;
76357;SDS011;65185;21.060;105.826;2023-05-18T08:56:24;25.98;;;17.70;;
76357;SDS011;65185;21.060;105.826;2023-05-18T08:58:54;26.63;;;17.27;;
76357;SDS011;65185;21.060;105.826;2023-05-18T09:01:22;24.42;;;17.48;;
76357;SDS011;65185;21.060;105.826;2023-05-18T09:03:53;25.85;;;18.42;;
76357;SDS011;65185;21.060;105.826;2023-05-18T09:06:23;25.33;;;18.13;;
76357;SDS011;65185;21.060;105.826;2023-05-18T09:08:51;28.75;;;18.15;;
76357;SDS011;65185;21.060;105.826;2023-05-18T09:11:19;29.65;;;19.05;;
76357;SDS011;65185;21.060;105.826;2023-05-18T09:13:50;30.75;;;19.30;;
76357;SDS011;65185;21.060;105.826;2023-05-18T09:16:17;31.65;;;19.95;;
76357;SDS011;65185;21.060;105.826;2023-05-18T09:18:44;45.65;;;28.45;;
76357;SDS011;65185;21.060;105.826;2023-05-18T09:21:10;49.78;;;29.50;;
76357;SDS011;65185;21.060;105.826;2023-05-18T09:23:38;49.65;;;31.88;;
76357;SDS011;65185;21.060;105.826;2023-05-18T09:26:05;51.25;;;33.13;;
76357;SDS011;65185;21.060;105.826;2023-05-18T09:28:37;50.88;;;33.45;;
76357;SDS011;65185;21.060;105.826;2023-05-18T09:31:15;52.00;;;33.60;;
76357;SDS011;65185;21.060;105.826;2023-05-18T09:33:43;50.75;;;33.97;;
76357;SDS011;65185;21.060;105.826;2023-05-18T09:36:11;55.70;;;35.88;;
76357;SDS011;65185;21.060;105.826;2023-05-18T09:38:42;51.40;;;34.28;;
76357;SDS011;65185;21.060;105.826;2023-05-18T09:41:11;54.38;;;34.30;;
76357;SDS011;65185;21.060;105.826;2023-05-18T09:43:40;62.50;;;36.03;;
76357;SDS011;65185;21.060;105.826;2023-05-18T09:46:08;59.08;;;36.42;;
76357;SDS011;65185;21.060;105.826;2023-05-18T09:48:36;50.50;;;35.65;;
76357;SDS011;65185;21.060;105.826;2023-05-18T09:51:09;57.25;;;37.40;;
76357;SDS011;65185;21.060;105.826;2023-05-18T09:53:42;59.10;;;37.45;;
76357;SDS011;65185;21.060;105.826;2023-05-18T09:56:33;52.90;;;35.10;;
76357;SDS011;65185;21.060;105.826;2023-05-18T09:59:08;60.10;;;36.50;;
76357;SDS011;65185;21.060;105.826;2023-05-18T10:01:36;54.22;;;36.08;;
76357;SDS011;65185;21.060;105.826;2023-05-18T10:04:20;52.25;;;35.70;;
76357;SDS011;65185;21.060;105.826;2023-05-18T10:06:47;61.45;;;38.97;;
76357;SDS011;65185;21.060;105.826;2023-05-18T10:09:15;58.03;;;37.30;;
76357;SDS011;65185;21.060;105.826;2023-05-18T10:11:42;53.92;;;36.38;;
76357;SDS011;65185;21.060;105.826;2023-05-18T10:14:11;61.92;;;39.22;;
76357;SDS011;65185;21.060;105.826;2023-05-18T10:16:39;57.63;;;37.75;;
76357;SDS011;65185;21.060;105.826;2023-05-18T10:19:06;52.63;;;37.03;;
76357;SDS011;65185;21.060;105.826;2023-05-18T10:21:36;57.25;;;36.15;;
76357;SDS011;65185;21.060;105.826;2023-05-18T10:24:03;58.22;;;36.22;;
76357;SDS011;65185;21.060;105.826;2023-05-18T10:26:33;53.88;;;36.20;;
76357;SDS011;65185;21.060;105.826;2023-05-18T10:29:04;52.38;;;35.90;;
76357;SDS011;65185;21.060;105.826;2023-05-18T10:31:32;57.40;;;37.88;;
76357;SDS011;65185;21.060;105.826;2023-05-18T10:34:02;57.40;;;35.78;;
76357;SDS011;65185;21.060;105.826;2023-05-18T10:36:29;58.70;;;37.78;;
76357;SDS011;65185;21.060;105.826;2023-05-18T10:39:00;62.45;;;39.03;;
76357;SDS011;65185;21.060;105.826;2023-05-18T10:41:29;55.92;;;37.20;;
76357;SDS011;65185;21.060;105.826;2023-05-18T10:43:57;58.88;;;39.13;;
76357;SDS011;65185;21.060;105.826;2023-05-18T10:46:28;60.30;;;37.80;;
76357;SDS011;65185;21.060;105.826;2023-05-18T10:48:56;49.72;;;34.38;;
76357;SDS011;65185;21.060;105.826;2023-05-18T10:51:25;53.13;;;36.60;;
76357;SDS011;65185;21.060;105.826;2023-05-18T10:53:56;51.63;;;36.17;;
76357;SDS011;65185;21.060;105.826;2023-05-18T10:56:46;64.07;;;37.53;;
76357;SDS011;65185;21.060;105.826;2023-05-18T10:59:15;60.55;;;38.67;;
76357;SDS011;65185;21.060;105.826;2023-05-18T11:01:43;57.08;;;37.28;;
76357;SDS011;65185;21.060;105.826;2023-05-18T11:04:26;58.40;;;36.88;;
76357;SDS011;65185;21.060;105.826;2023-05-18T11:06:57;55.63;;;32.67;;
76357;SDS011;65185;21.060;105.826;2023-05-18T11:09:25;55.15;;;32.03;;
76357;SDS011;65185;21.060;105.826;2023-05-18T11:11:55;52.50;;;31.23;;
76357;SDS011;65185;21.060;105.826;2023-05-18T11:14:24;44.42;;;29.77;;
76357;SDS011;65185;21.060;105.826;2023-05-18T11:16:52;49.05;;;30.15;;
76357;SDS011;65185;21.060;105.826;2023-05-18T11:19:23;50.42;;;28.25;;
76357;SDS011;65185;21.060;105.826;2023-05-18T11:21:51;47.50;;;28.58;;
76357;SDS011;65185;21.060;105.826;2023-05-18T11:26:58;50.47;;;29.63;;
76357;SDS011;65185;21.060;105.826;2023-05-18T11:29:34;54.55;;;30.50;;
76357;SDS011;65185;21.060;105.826;2023-05-18T11:32:21;48.90;;;29.52;;
76357;SDS011;65185;21.060;105.826;2023-05-18T11:34:57;55.08;;;29.70;;
76357;SDS011;65185;21.060;105.826;2023-05-18T11:40:03;49.55;;;31.02;;
76357;SDS011;65185;21.060;105.826;2023-05-18T11:42:34;54.50;;;28.35;;
76357;SDS011;65185;21.060;105.826;2023-05-18T11:45:11;55.38;;;29.83;;
76357;SDS011;65185;21.060;105.826;2023-05-18T11:47:38;48.50;;;29.63;;
76357;SDS011;65185;21.060;105.826;2023-05-18T11:50:05;47.53;;;29.35;;
76357;SDS011;65185;21.060;105.826;2023-05-18T11:52:43;46.47;;;28.55;;
76357;SDS011;65185;21.060;105.826;2023-05-18T11:55:15;52.78;;;29.80;;
76357;SDS011;65185;21.060;105.826;2023-05-18T11:57:46;49.10;;;27.80;;
76357;SDS011;65185;21.060;105.826;2023-05-18T12:00:16;56.75;;;30.05;;
76357;SDS011;65185;21.060;105.826;2023-05-18T12:02:45;50.35;;;29.70;;
76357;SDS011;65185;21.060;105.826;2023-05-18T12:05:13;49.53;;;30.20;;
76357;SDS011;65185;21.060;105.826;2023-05-18T12:07:40;52.15;;;27.67;;
76357;SDS011;65185;21.060;105.826;2023-05-18T12:10:10;51.95;;;29.73;;
76357;SDS011;65185;21.060;105.826;2023-05-18T12:12:39;56.30;;;28.63;;
76357;SDS011;65185;21.060;105.826;2023-05-18T12:15:07;52.17;;;29.10;;
76357;SDS011;65185;21.060;105.826;2023-05-18T12:17:39;51.10;;;27.98;;
76357;SDS011;65185;21.060;105.826;2023-05-18T12:20:07;47.35;;;27.60;;
76357;SDS011;65185;21.060;105.826;2023-05-18T12:22:45;50.30;;;29.02;;
76357;SDS011;65185;21.060;105.826;2023-05-18T12:25:19;49.00;;;27.83;;
76357;SDS011;65185;21.060;105.826;2023-05-18T12:27:48;46.20;;;28.05;;
76357;SDS011;65185;21.060;105.826;2023-05-18T12:30:18;48.08;;;29.42;;
76357;SDS011;65185;21.060;105.826;2023-05-18T12:32:55;43.15;;;28.30;;
76357;SDS011;65185;21.060;105.826;2023-05-18T12:35:22;47.38;;;30.35;;
76357;SDS011;65185;21.060;105.826;2023-05-18T12:37:54;51.88;;;31.40;;
76357;SDS011;65185;21.060;105.826;2023-05-18T12:40:43;54.60;;;31.08;;
76357;SDS011;65185;21.060;105.826;2023-05-18T12:43:13;53.17;;;32.38;;
76357;SDS011;65185;21.060;105.826;2023-05-18T12:45:40;49.60;;;31.90;;
76357;SDS011;65185;21.060;105.826;2023-05-18T12:48:09;52.42;;;31.98;;
76357;SDS011;65185;21.060;105.826;2023-05-18T12:50:46;47.85;;;32.10;;
76357;SDS011;65185;21.060;105.826;2023-05-18T12:53:17;46.70;;;30.60;;
76357;SDS011;65185;21.060;105.826;2023-05-18T12:55:44;48.88;;;30.63;;
76357;SDS011;65185;21.060;105.826;2023-05-18T12:58:20;48.33;;;30.58;;
76357;SDS011;65185;21.060;105.826;2023-05-18T13:00:47;47.25;;;30.95;;
76357;SDS011;65185;21.060;105.826;2023-05-18T13:03:18;44.33;;;29.77;;
76357;SDS011;65185;21.060;105.826;2023-05-18T13:06:04;42.45;;;30.10;;
76357;SDS011;65185;21.060;105.826;2023-05-18T13:08:33;46.10;;;28.45;;
76357;SDS011;65185;21.060;105.826;2023-05-18T13:11:04;49.53;;;30.98;;
76357;SDS011;65185;21.060;105.826;2023-05-18T13:13:33;49.00;;;29.65;;
76357;SDS011;65185;21.060;105.826;2023-05-18T13:15:59;54.65;;;30.23;;
76357;SDS011;65185;21.060;105.826;2023-05-18T13:18:26;49.15;;;30.05;;
76357;SDS011;65185;21.060;105.826;2023-05-18T13:20:54;47.08;;;30.90;;
76357;SDS011;65185;21.060;105.826;2023-05-18T13:23:23;56.63;;;31.52;;
76357;SDS011;65185;21.060;105.826;2023-05-18T13:25:54;47.25;;;32.05;;
76357;SDS011;65185;21.060;105.826;2023-05-18T13:28:22;46.92;;;31.45;;
76357;SDS011;65185;21.060;105.826;2023-05-18T13:30:49;48.08;;;32.65;;
76357;SDS011;65185;21.060;105.826;2023-05-18T13:33:16;43.25;;;30.23;;
76357;SDS011;65185;21.060;105.826;2023-05-18T13:35:43;45.50;;;29.55;;
76357;SDS011;65185;21.060;105.826;2023-05-18T13:38:11;49.78;;;31.02;;
76357;SDS011;65185;21.060;105.826;2023-05-18T13:40:39;51.63;;;28.73;;
76357;SDS011;65185;21.060;105.826;2023-05-18T13:43:07;43.65;;;28.05;;
76357;SDS011;65185;21.060;105.826;2023-05-18T13:45:34;42.63;;;27.55;;
76357;SDS011;65185;21.060;105.826;2023-05-18T13:48:01;38.80;;;27.17;;
76357;SDS011;65185;21.060;105.826;2023-05-18T13:50:31;38.17;;;27.15;;
76357;SDS011;65185;21.060;105.826;2023-05-18T13:52:58;43.92;;;29.42;;
76357;SDS011;65185;21.060;105.826;2023-05-18T13:55:25;55.47;;;33.00;;
76357;SDS011;65185;21.060;105.826;2023-05-18T13:57:52;52.95;;;31.70;;
76357;SDS011;65185;21.060;105.826;2023-05-18T14:00:19;47.75;;;31.98;;
76357;SDS011;65185;21.060;105.826;2023-05-18T14:02:46;52.53;;;32.35;;
76357;SDS011;65185;21.060;105.826;2023-05-18T14:05:13;51.08;;;30.42;;
76357;SDS011;65185;21.060;105.826;2023-05-18T14:07:41;49.40;;;29.88;;
76357;SDS011;65185;21.060;105.826;2023-05-18T14:10:09;46.58;;;28.83;;
76357;SDS011;65185;21.060;105.826;2023-05-18T14:12:37;43.28;;;26.27;;
76357;SDS011;65185;21.060;105.826;2023-05-18T14:15:06;41.30;;;27.95;;
76357;SDS011;65185;21.060;105.826;2023-05-18T14:17:34;39.28;;;27.65;;
76357;SDS011;65185;21.060;105.826;2023-05-18T14:20:01;38.08;;;26.20;;
76357;SDS011;65185;21.060;105.826;2023-05-18T14:22:29;48.60;;;28.05;;
76357;SDS011;65185;21.060;105.826;2023-05-18T14:24:56;46.58;;;30.10;;
76357;SDS011;65185;21.060;105.826;2023-05-18T14:27:23;48.28;;;30.85;;
76357;SDS011;65185;21.060;105.826;2023-05-18T14:29:50;48.28;;;30.35;;